createdAt,value
2023-04-13T00:04:15.374Z,21.8
2023-04-13T00:10:07.638Z,21.6
2023-04-13T00:16:00.211Z,21.6
2023-04-13T00:21:51.724Z,21.9
2023-04-13T00:27:43.114Z,22.3
2023-04-13T00:33:35.124Z,22.6
2023-04-13T00:39:26.264Z,22.4
2023-04-13T00:45:17.536Z,22.1
2023-04-13T00:51:09.730Z,21.9
2023-04-13T00:57:01.162Z,21.8
2023-04-13T01:02:53.222Z,21.7
2023-04-13T01:08:46.371Z,21.6
2023-04-13T01:14:20.703Z,21.6
2023-04-13T01:21:07.674Z,21.5
2023-04-13T01:26:59.399Z,21.6
2023-04-13T01:32:50.976Z,22.1
2023-04-13T01:38:27.551Z,22.3
2023-04-13T01:44:18.959Z,22.1
2023-04-13T01:50:10.410Z,21.9
2023-04-13T01:55:46.216Z,21.8
2023-04-13T02:01:38.468Z,21.6
2023-04-13T02:07:32.103Z,21.6
2023-04-13T02:13:22.952Z,21.4
2023-04-13T02:19:14.993Z,21.6
2023-04-13T02:25:05.991Z,21.9
2023-04-13T02:30:57.720Z,22.4
2023-04-13T02:36:49.976Z,22.2
2023-04-13T02:42:40.764Z,21.9
2023-04-13T02:48:32.511Z,21.8
2023-04-13T02:54:23.780Z,21.6
2023-04-13T03:00:14.330Z,21.6
2023-04-13T03:06:07.836Z,21.4
2023-04-13T03:12:00.602Z,21.5
2023-04-13T03:17:36.787Z,21.9
2023-04-13T03:23:28.303Z,22.3
2023-04-13T03:29:20.879Z,22.1
2023-04-13T03:35:12.621Z,21.9
2023-04-13T03:41:05.039Z,21.8
2023-04-13T03:46:42.162Z,21.6
2023-04-13T03:52:33.490Z,21.6
2023-04-13T03:58:25.348Z,21.4
2023-04-13T04:04:18.704Z,21.5
2023-04-13T04:10:10.125Z,21.8
2023-04-13T04:16:05.184Z,22.4
2023-04-13T04:21:59.788Z,22.2
2023-04-13T04:27:51.007Z,21.8
2023-04-13T04:33:42.741Z,21.7
2023-04-13T04:39:35.912Z,21.6
2023-04-13T04:45:11.870Z,21.5
2023-04-13T04:50:48.126Z,21.4
2023-04-13T04:56:39.761Z,21.4
2023-04-13T05:02:31.726Z,21.7
2023-04-13T05:08:08.786Z,22.1
2023-04-13T05:14:00.748Z,22.3
2023-04-13T05:19:54.850Z,22.4
2023-04-13T05:25:46.512Z,22.2
2023-04-13T05:31:41.124Z,21.9
2023-04-13T05:37:31.840Z,21.8
2023-04-13T05:43:24.022Z,21.6
2023-04-13T05:49:16.800Z,21.6
2023-04-13T05:55:07.818Z,21.4
2023-04-13T06:00:59.395Z,21.4
2023-04-13T06:06:56.116Z,21.8
2023-04-13T06:12:47.346Z,22.3
2023-04-13T06:18:40.121Z,22.1
2023-04-13T06:24:32.996Z,21.8
2023-04-13T06:30:24.454Z,21.7
2023-04-13T06:36:16.794Z,21.7
2023-04-13T06:42:12.008Z,21.6
2023-04-13T06:47:58.800Z,21.8
2023-04-13T06:53:50.252Z,22.3
2023-04-13T06:59:42.149Z,22.1
2023-04-13T07:05:51.706Z,22
2023-04-13T07:11:43.069Z,21.9
2023-04-13T07:17:35.587Z,21.9
2023-04-13T07:23:11.276Z,21.9
2023-04-13T07:29:02.066Z,21.8
2023-04-13T07:34:58.763Z,22
2023-04-13T07:40:53.275Z,22.3
2023-04-13T07:46:44.998Z,22
2023-04-13T07:52:36.892Z,21.9
2023-04-13T07:58:27.944Z,21.9
2023-04-13T08:04:20.634Z,21.9
2023-04-13T08:10:16.471Z,21.9
2023-04-13T08:15:52.415Z,21.7
2023-04-13T08:21:47.136Z,22.1
2023-04-13T08:27:41.017Z,22.2
2023-04-13T08:33:34.163Z,22.1
2023-04-13T08:39:26.257Z,22
2023-04-13T08:45:19.593Z,21.9
2023-04-13T08:51:21.009Z,21.9
2023-04-13T08:57:03.953Z,21.9
2023-04-13T09:03:10.448Z,21.8
2023-04-13T09:09:04.545Z,22.3
2023-04-13T09:14:40.454Z,22.1
2023-04-13T09:20:32.476Z,22
2023-04-13T09:34:28.721Z,21.9
2023-04-13T09:39:42.849Z,21.8
2023-04-13T09:45:19.018Z,21.8
2023-04-13T09:50:40.483Z,21.8
2023-04-13T09:56:33.177Z,21.7
2023-04-13T10:02:09.292Z,21.6
2023-04-13T10:07:55.712Z,21.6
2023-04-13T10:13:57.200Z,21.5
2023-04-13T10:19:51.924Z,21.4
2023-04-13T10:26:02.029Z,21.4
2023-04-13T10:31:39.066Z,21.3
2023-04-13T10:37:37.949Z,21.3
2023-04-13T10:43:25.632Z,21.2
2023-04-13T10:54:33.114Z,21.1
2023-04-13T11:00:42.194Z,21.1
2023-04-13T11:06:18.604Z,21
2023-04-13T11:12:04.774Z,20.9
2023-04-13T11:17:40.416Z,20.9
2023-04-13T11:23:21.491Z,20.8
2023-04-13T11:28:57.116Z,20.8
2023-04-13T11:34:17.383Z,20.8
2023-04-13T11:39:53.806Z,20.7
2023-04-13T11:45:59.595Z,20.7
2023-04-13T11:51:53.302Z,20.6
2023-04-13T11:57:49.753Z,20.6
2023-04-13T12:04:52.269Z,20.6
2023-04-13T12:11:07.062Z,20.5
2023-04-13T12:20:04.715Z,20.4
2023-04-13T12:32:22.874Z,20.4
2023-04-13T12:38:14.431Z,20.4
2023-04-13T12:44:07.609Z,20.4
2023-04-13T12:49:59.255Z,20.3
2023-04-13T12:55:52.250Z,20.3
2023-04-13T13:01:44.532Z,20.3
2023-04-13T13:07:44.302Z,20.3
2023-04-13T13:13:47.540Z,20.3
2023-04-13T13:19:55.209Z,20.3
2023-04-13T13:25:52.627Z,20.2
2023-04-13T13:32:59.899Z,20.2
2023-04-13T13:38:36.807Z,20.2
2023-04-13T13:44:29.751Z,20.2
2023-04-13T13:50:06.917Z,20.1
2023-04-13T13:56:15.848Z,20.1
2023-04-13T14:01:51.496Z,20.1
2023-04-13T14:07:44.498Z,20.1
2023-04-13T14:13:23.171Z,20.1
2023-04-13T14:19:33.945Z,20.1
2023-04-13T14:25:26.012Z,20.1
2023-04-13T14:31:17.998Z,20.1
2023-04-13T14:37:10.566Z,20.1
2023-04-13T14:43:02.520Z,20.1
2023-04-13T14:48:55.199Z,20
2023-04-13T14:54:46.850Z,20
2023-04-13T15:00:39.638Z,20
2023-04-13T15:06:36.655Z,20
2023-04-13T15:12:29.862Z,20
2023-04-13T15:18:22.421Z,20
2023-04-13T15:24:14.986Z,20
2023-04-13T15:30:06.837Z,19.9
2023-04-13T15:36:00.201Z,19.9
2023-04-13T15:41:51.560Z,19.9
2023-04-13T15:47:43.630Z,19.9
2023-04-13T15:53:35.782Z,19.9
2023-04-13T15:59:27.135Z,19.9
2023-04-13T16:05:20.896Z,19.9
2023-04-13T16:11:15.779Z,19.9
2023-04-13T16:17:22.287Z,19.9
2023-04-13T16:23:14.670Z,19.9
2023-04-13T16:29:06.726Z,19.9
2023-04-13T16:35:14.818Z,19.9
2023-04-13T16:41:07.666Z,19.9
2023-04-13T16:47:00.244Z,19.9
2023-04-13T16:52:37.228Z,19.9
2023-04-13T16:58:29.420Z,19.9
2023-04-13T17:04:41.284Z,19.9
2023-04-13T17:10:32.795Z,19.9
2023-04-13T17:15:53.553Z,19.9
2023-04-13T17:21:46.836Z,19.8
2023-04-13T17:27:38.847Z,19.9
2023-04-13T17:33:31.023Z,19.9
2023-04-13T17:39:26.580Z,19.9
2023-04-13T17:45:19.024Z,19.9
2023-04-13T17:51:11.722Z,19.9
2023-04-13T17:57:05.021Z,19.8
2023-04-13T18:02:59.812Z,19.8
2023-04-13T18:08:37.874Z,19.9
2023-04-13T18:14:16.543Z,19.9
2023-04-13T18:19:37.812Z,19.9
2023-04-13T18:25:00.304Z,19.8
2023-04-13T18:30:52.761Z,19.8
2023-04-13T18:36:31.309Z,19.8
2023-04-13T18:42:07.428Z,19.8
2023-04-13T18:47:28.751Z,19.8
2023-04-13T18:53:20.667Z,19.8
2023-04-13T18:58:57.076Z,19.8
2023-04-13T19:04:37.472Z,19.8
2023-04-13T19:10:31.969Z,19.8
2023-04-13T19:16:23.475Z,19.8
2023-04-13T19:22:15.967Z,19.8
2023-04-13T19:28:10.243Z,19.8
2023-04-13T19:33:47.096Z,19.8
2023-04-13T19:39:40.607Z,19.8
2023-04-13T19:45:33.420Z,19.8
2023-04-13T19:51:25.623Z,19.8
2023-04-13T19:57:18.191Z,19.9
2023-04-13T20:03:11.699Z,20.5
2023-04-13T20:09:04.309Z,21.2
2023-04-13T20:14:56.414Z,20.8
2023-04-13T20:20:49.612Z,21.3
2023-04-13T20:26:43.868Z,21.4
2023-04-13T20:32:36.400Z,21.3
2023-04-13T20:44:05.475Z,21.7
2023-04-13T20:50:44.160Z,21.6
2023-04-13T20:56:35.635Z,21.4
2023-04-13T21:02:28.159Z,21.4
2023-04-13T21:08:21.221Z,21.2
2023-04-13T21:14:13.636Z,21.8
2023-04-13T21:20:09.376Z,21.8
2023-04-13T21:26:01.126Z,21.6
2023-04-13T21:31:37.172Z,21.6
2023-04-13T21:37:21.760Z,21.6
2023-04-13T21:43:14.421Z,21.6
2023-04-13T21:49:13.779Z,21.6
2023-04-13T21:55:07.866Z,21.4
2023-04-13T22:00:59.852Z,21.6
2023-04-13T22:06:53.865Z,22
2023-04-13T22:12:59.025Z,21.8
2023-04-13T22:18:53.306Z,21.8
2023-04-13T22:24:44.832Z,21.7
2023-04-13T22:30:21.488Z,21.8
2023-04-13T22:36:14.074Z,21.7
2023-04-13T22:42:05.951Z,21.7
2023-04-13T22:47:56.905Z,21.4
2023-04-13T22:53:48.448Z,22.1
2023-04-13T22:59:25.157Z,22
2023-04-13T23:05:22.050Z,21.9
2023-04-13T23:10:58.582Z,21.8
2023-04-13T23:16:35.398Z,21.8
2023-04-13T23:22:27.367Z,21.8
2023-04-13T23:28:19.904Z,21.8
2023-04-13T23:34:11.762Z,21.8
2023-04-13T23:40:03.185Z,21.5
2023-04-13T23:45:54.624Z,22.1
2023-04-13T23:51:46.843Z,22
2023-04-13T23:57:38.212Z,21.9
